Ride Results

Scenic City 1 & 2 Endurance Rides (22-11-2014)
Ride distance: 80.0 km

Outcomes - Scenic City 1 & 2 Endurance Rides (22-11-2014)
Division No. of Entries Retired / DNE Completed Withdrawn Ineligible V/O Percentage Completed
HW 9 - 7 - - 2 77.78%
MW 19 - 13 2 - 4 68.42%
LW 14 - 13 - - 1 92.86%
JN 4 - 3 - - 1 75.00%
Totals 46 - 36 2 - 8 78.26%
Results - Scenic City 1 & 2 Endurance Rides (22-11-2014)
No. Rider Horse Place Time Leg Speeds Total
Km/Hr
H/R bpm
Heavyweight
34 Evan Drain-Shepheard Annaliisa'ar 1 6:40:00 11.5, 12.5 12.00 42, 42, 38 (Avg:40)
12 Sarah Kelly Littlebanks Woneta 2 (BC) 7:07:00 10.4, 12.4 11.24 32, 36, 42 (Avg:39)
14 Chris Geddes Baribo 3 7:42:00 10.8, 9.8 10.39 37, 50, 55 (Avg:52)
39 Sue Warren Warren Park Kiara 4 8:05:00 9.7, 10.1 9.90 36, 49, 58 (Avg:53)
16 Jessica Dastani Corryong Dorsaz 5 8:42:00 8.8, 9.6 9.20 38, 46, 47 (Avg:46)
93 Jody Harrison Phoenix 6 9:36:00 8.9, 7.6 8.33 34, 43 (Avg:43)
43 Ian Dreghorn Ausden Nile Prins 7 10:10:00 8.7, 6.9 7.87 36, 41 (Avg:41)
32 Greg Chant San Ella Picasso Heart Rate L1 0:00:00 9.5 - 38, 60 (Avg:60)
1 Scott Peters Zastava Park Saruman Lame L1 3:41:00 12.2 12.22 32, 42 (Avg:42)
Middleweight
37 Ian Curtis Blake's Heaven Summer Wind 1 (BC) 5:00:00 14.9, 17.6 16.00 36, 45, 46 (Avg:45)
33 Jenny Shepheard Currowan Waratah 2 6:40:00 11.5, 12.5 12.00 42, 46, 44 (Avg:45)
7 Simon Bain Akifa Farras Ice 3 6:41:00 11.5, 12.4 11.97 37, 44, 48 (Avg:46)
46 Jennifer Gilbertson Coolahlee Park Samba 3 6:41:00 11.5, 12.4 11.97 32, 43, 38 (Avg:40)
21 Louise McCormack Kintamani Silver Eclipse 5 7:19:00 10.5, 11.4 10.93 30, 44, 44 (Avg:44)
2 Noni Seagrim Coolinda Park Frezja 5 7:19:00 10.5, 11.4 10.93 45, 50, 56 (Avg:53)
4 Daphne Phillips Bad Boy Bubby 7 8:05:00 9.7, 10.0 9.90 40, 37, 46 (Avg:41)
91 Tayla Warren Warren Park O.B. One 7 8:05:00 9.7, 10.1 9.90 33, 42, 58 (Avg:50)
19 Aaron Dowling Littlebanks Toby 9 8:42:00 8.8, 9.6 9.20 40, 46, 45 (Avg:45)
17 Rebecca Lees Ralvon Eternity 9 8:42:00 8.8, 9.6 9.20 36, 39, 40 (Avg:39)
6 Nicole Pearson Sandine Gem 11 9:03:00 8.5, 9.2 8.84 31, 44, 48 (Avg:46)
5 John Osboldstone Pure Detenation 12 9:30:00 8.5, 8.3 8.42 36, 48, 51 (Avg:49)
38 Jo Davis Kurrajong Bazinga 13 10:10:00 8.7, 6.9 7.87 38, 42 (Avg:42)
27 Bev Turner Shazzam Lame L2 0:00:00 11.5, 12.4 - 36, 34, 34 (Avg:34)
10 Talea Hasko-Stewart Blake's Heaven Summer Reign Lame L1 0:00:00 14.2 - 31, 39 (Avg:39)
13 Ben Hudson Littlebanks Dizzy Lame L1 0:00:00 14.6 - 30, 54 (Avg:54)
40 Garry Matthews Hillbrook Return Lame L1 0:00:00 8.7 - 38, 35 (Avg:35)
23 Fiona Meller Malu Vale Embers Withdrawn L1 0:00:00 - - 32
24 David Player Mirakhani Saa'meer Withdrawn L1 0:00:00 - - 43
Lightweight
8 Indigo Noonan Littlebanks Sparkles 1 (BC) 5:00:00 14.6, 18.1 16.00 28, 42, 44 (Avg:43)
9 Fia Hasko-Stewart Wantley Kaliph 2 5:20:00 14.2, 16.1 15.00 29, 43, 38 (Avg:40)
36 Kali Curtis Blake's Heaven Carousel 3 6:41:00 11.5, 12.4 11.97 32, 39, 50 (Avg:44)
22 April Newman Tarnette 4 7:07:00 10.4, 12.4 11.24 32, 30, 38 (Avg:34)
3 Tegan Symington Nicari Shareefa 5 7:19:00 10.5, 11.4 10.93 42, 42, 41 (Avg:41)
35 Barbara Kurcz Macquarie Park Dassan 6 7:36:00 9.6, 11.9 10.53 31, 40, 45 (Avg:42)
26 Shan Symons Dashanda Serene 7 8:05:00 9.7, 10.0 9.90 32, 32, 42 (Avg:37)
31 Ann English Cinbel-A-Chanele 8 8:21:00 9.5, 9.6 9.58 48, 45, 48 (Avg:46)
30 Marion Grove Wickwood Domanic 8 8:21:00 9.5, 9.6 9.58 32, 42, 45 (Avg:43)
42 Kim Noble Aitchisonview Maverick 10 8:34:00 9.3, 9.3 9.34 46, 50, 47 (Avg:48)
18 Maddy Collins CJ 11 8:42:00 8.8, 9.6 9.20 29, 41, 40 (Avg:40)
44 Charlotte Plews Musical Gully Picado 11 8:42:00 8.8, 9.6 9.20 40, 42, 45 (Avg:43)
94 Lyn Dillon Banfield Khamsin 13 9:36:00 8.9, 7.6 8.33 40, 46, 51 (Avg:48)
15 Allix Jones Kinvara Coco Lame L2 0:00:00 8.9, 9.3 - 39, 46, 52 (Avg:49)
Junior
11 Georgia Curry Mountain Breeze Mingha 1 (BC) 7:36:00 9.6, 11.9 10.53 36, 38, 48 (Avg:43)
41 Alison Noble Roswick Ameera 2 8:34:00 9.3, 9.3 9.34 36, 49, 46 (Avg:47)
20 Daniel Noble M.A. Hasaab 2 8:34:00 9.3, 9.3 9.34 48, 40, 39 (Avg:39)
25 Tahlia Franke Ra Silver Dancer Lame L1 0:00:00 14.9 - 32, 44 (Avg:44)